Etusivu
METAR-TAF:

METAR-TAF

Lentoasemat :

Damaskos, Syyria

Damaskoksen kansainvälinen lentoasema

Leveyspiiri: 33-25N, Pituuspiiri: 036-31E, korkeus merenpinnasta: 608 m

Tämänhetkinen sää

Tämä raportti tehtiin 52 minuuttia sitten, kello 00.00 UTC
tyyntä
Lämpötila 10°C
Kosteus 57%
Ilmanpaine 1018 hPa
Näkyvyys 10 km tai enemmän
ei pilviä alle 1500 m:ssä eikä cumulonimbus-pilviä

METAR: OSDI 300000Z 00000KT CAVOK 10/02 Q1018

Aika: 02:52 (00:52 UTC)

Sääennuste

Ennuste voimassa 30. päivästä klo 00 UTC - 31. päivään klo 06 UTC
Tuuli 10 kn lounaasta
Näkyvyys 10 km tai enemmän
ei pilviä alle 1500 m:ssä eikä cumulonimbus-pilviä
Ajoittain
30. päivästä klo 12 UTC - 30. päivään klo 18 UTC
Tuuli 15 kn lännestä/lounaasta
Näkyvyys: 8000 m
Muutamia pilviä 3000 ft:n korkeudessa
Hajanaisia pilviä 10000 ft:n korkeudessa

TAF: OSDI 3000/3106 22010KT CAVOK TEMPO 3012/3018 24015KT 8000 FEW030 SCT100

Säähavainnot ja -ennusteet yli 4000 lentoasemalta (METAR- ja TAF-raportit).

Käytössä olevat sääasemat on merkitty karttaan keltaisilla ja punaisilla pisteillä.

Aseta hiiri pisteen päälle nähdäksesi sääaseman nimen.

Klikkaa sitten nähdäksesi säähavainnot ja -ennusteet.

Kartan vaihtaminen: klikkaa mustalla rastilla varustettuja vihreitä pisteitä, niin voit zoomata sisään; viivalla varustettua vihreää pistettä, niin voit zoomata ulos tai vihreitä nuolia, niin pääset viereisille kartoille.


METAR-TAF: